KSUE/SUE METAR and TAF weather

Enter ICAO airport designator
Station Type Date Time Source
KSUE METAR 2022/06/27 08:56 UTC NOAA

KSUE 270856Z AUTO 30012KT 10SM SCT080 14/07 A3011 RMK AO2 SLP192 T01440072


Station Type Date Time Source
KSUE Decoded METAR 2022/06/27 08:56 UTC NOAA

Sturgeon Bay, WI, United States (KSUE) 44-51N 087-25W
Jun 27, 2022 - 04:56 AM EDT / 2022.06.27 0856 UTC
Wind: from the WNW (300 degrees) at 14 MPH (12 KT):0
Visibility: 10 mile(s):0
Sky conditions: partly cloudy
Temperature: 57.9 F (14.4 C)
Dew Point: 45.0 F (7.2 C)
Relative Humidity: 61%
Pressure (altimeter): 30.11 in. Hg (1019 hPa)
ob: KSUE 270856Z AUTO 30012KT 10SM SCT080 14/07 A3011 RMK AO2 SLP192 T01440072
cycle: 9

Station Type Date Time Source
KSUE TAF UTC NOAA

Error!

Example: see airport list